Terminal Aerodrome Forecast
Issued by NWS

Home | Current Version | Previous Version | Text Only | Print | Product List | Glossary On
Versions: 1 2 3 4 5 6 7 8 9 10 11 12 13 14 15 16 17
640
FTUS46 KMTR 301559 AAA
TAFSTS
TAF AMD
KSTS 301559Z 3016/0112 28003KT P6SM BKN008
     FM301700 27006KT P6SM SKC
     FM302200 26014KT P6SM SKC
     FM010500 31010KT P6SM OVC006=

USA.gov is the U.S. government's official web portal to all federal, state and local government web resources and services.